Weather History for KIER - April, 2013

Change the Weather History Date:

Monday, April 1, 2013

  Actual Average (KAEX) Record (KAEX)
Temperature  
Mean Temperature 64 °F 63 °F  
Max Temperature 77 °F 75 °F 87 °F (1927)
Min Temperature 52 °F 51 °F 34 °F (1942)
Degree Days  
Heating Degree Days 1 4  
Month to date heating degree days 4  
Since 1 July heating degree days 1884  
Cooling Degree Days 0 2  
Month to date cooling degree days 2  
Year to date cooling degree days 55  
Growing Degree Days 14 (Base 50)    
Moisture  
Dew Point 54 °F    
Average Humidity 80    
Maximum Humidity 100    
Minimum Humidity 35    
Precipitation  
Precipitation 0.00 in 0.22 in 1.41 in (1957)
Month to date precipitation 0.22  
Year to date precipitation 14.95  
Snow  
Snow 0.00 in - 0.00 in ()
Month to date snowfall  
Since 1 July snowfall  
Snow Depth -    
Sea Level Pressure  
Sea Level Pressure 30.04 in    
Wind  
Wind Speed 1 mph (East)    
Max Wind Speed 6 mph    
Max Gust Speed -    
Visibility 6 miles    
Events Fog    
T = Trace of Precipitation, MM = Missing Value Source: NWS Daily Summary

Daily Weather History Graph

Daily Weather History Graph

Search for Another Location

Airport or City:

Trip Planner

Search our weather history database for the weather conditions in past years. The results will help you decide how hot, cold, wet, or windy it might be!

Date:

Astronomy

Apr. 01, 2013 Rise Set
Actual Time 7:00 AM CDT 7:32 PM CDT
Civil Twilight 6:36 AM CDT 7:56 PM CDT
Nautical Twilight 6:07 AM CDT 8:25 PM CDT
Astronomical Twilight 5:38 AM CDT 8:54 PM CDT
Moon 12:25 AM CDT (4/1) 11:03 AM CDT (4/1)
Length of Visible Light 13h 20m
Length of Day
12h 31m
Waning Gibbous, 67% of the Moon is Illuminated
Apr 1
Waning Gibbous
Apr 2
Last Quarter
Apr 10
New
Apr 18
First Quarter
Apr 25
Full

Hourly Weather History & Observations

Time (CDT) Temp. Dew Point Humidity Pressure Visibility Wind Dir Wind Speed Gust Speed Precip Events Conditions
12:15 AM 54.7 °F 54.7 °F 100% 29.97 in 0.2 mi Calm Calm - N/A Fog Fog
12:35 AM 54.3 °F 54.3 °F 100% 29.98 in 0.2 mi Calm Calm - N/A Fog Fog
12:55 AM 53.2 °F 53.2 °F 100% 29.98 in 1.0 mi Calm Calm - N/A   Mist
1:15 AM 54.0 °F 54.0 °F 100% 29.98 in 1.8 mi Calm Calm - N/A   Mist
1:35 AM 54.5 °F 54.5 °F 100% 29.98 in 0.8 mi Calm Calm - N/A   Mist
1:55 AM 56.3 °F 56.3 °F 100% 29.98 in 10.0 mi NW 3.5 mph - N/A   Clear
2:15 AM 56.3 °F 56.3 °F 100% 29.98 in 7.0 mi NNW 3.5 mph - N/A   Clear
2:35 AM 56.1 °F 56.1 °F 100% 29.98 in 5.0 mi NW 3.5 mph - N/A   Clear
2:55 AM 56.3 °F 56.3 °F 100% 29.99 in 5.0 mi Calm Calm - N/A   Clear
3:15 AM 56.1 °F 56.1 °F 100% 29.99 in 4.0 mi Calm Calm - N/A   Clear
3:35 AM 53.6 °F 53.6 °F 100% 29.99 in 0.8 mi Calm Calm - N/A   Mist
3:55 AM 53.1 °F 53.1 °F 100% 29.99 in 0.2 mi Calm Calm - N/A Fog Fog
4:15 AM 55.0 °F 55.0 °F 100% 30.00 in 0.2 mi Calm Calm - N/A Fog Fog
4:35 AM 55.8 °F 55.8 °F 100% 30.00 in 0.2 mi Calm Calm - N/A Fog Fog
4:55 AM 54.9 °F 54.9 °F 100% 30.00 in 0.2 mi Calm Calm - N/A Fog Fog
5:15 AM 54.5 °F 54.5 °F 100% 30.01 in 0.2 mi Calm Calm - N/A Fog Fog
5:35 AM 54.7 °F 54.7 °F 100% 30.02 in 0.2 mi Calm Calm - N/A Fog Fog
5:55 AM 54.3 °F 54.3 °F 100% 30.03 in 0.2 mi Calm Calm - N/A Fog Fog
6:15 AM 53.8 °F 53.8 °F 100% 30.03 in 0.2 mi Calm Calm - N/A Fog Fog
6:35 AM 52.7 °F 52.7 °F 100% 30.04 in 0.2 mi Calm Calm - N/A Fog Fog
6:55 AM 52.5 °F 52.5 °F 100% 30.06 in 0.2 mi Calm Calm - N/A Fog Fog
7:15 AM 52.2 °F 52.2 °F 100% 30.06 in 0.2 mi Calm Calm - N/A Fog Fog
7:35 AM 52.7 °F 52.7 °F 100% 30.06 in 0.2 mi Calm Calm - N/A Fog Fog
7:55 AM 53.2 °F 53.2 °F 100% 30.08 in 0.2 mi Calm Calm - N/A Fog Fog
8:15 AM 53.6 °F 53.6 °F 100% 30.09 in 0.2 mi Calm Calm - N/A Fog Fog
8:35 AM 53.8 °F 53.8 °F 100% 30.09 in 0.2 mi Calm Calm - N/A Fog Fog
8:55 AM 54.5 °F 54.5 °F 100% 30.10 in 0.2 mi Calm Calm - N/A Fog Fog
9:15 AM 55.6 °F 55.6 °F 100% 30.10 in 0.2 mi Calm Calm - N/A Fog Fog
9:35 AM 56.5 °F 56.5 °F 100% 30.11 in 0.2 mi Calm Calm - N/A Fog Fog
9:55 AM 57.7 °F 57.7 °F 100% 30.11 in 0.2 mi Calm Calm - N/A Fog Fog
10:15 AM 58.6 °F 58.6 °F 100% 30.11 in 0.2 mi Calm Calm - N/A Fog Fog
10:35 AM 59.7 °F 59.2 °F 98% 30.11 in 1.2 mi Calm Calm - N/A   Overcast
10:55 AM 61.7 °F 60.1 °F 94% 30.12 in 7.0 mi Calm Calm - N/A   Overcast
11:15 AM 63.9 °F 60.6 °F 89% 30.11 in 10.0 mi Calm Calm - N/A   Scattered Clouds
11:35 AM 66.0 °F 61.0 °F 84% 30.12 in 10.0 mi ESE 3.5 mph - N/A   Clear
11:55 AM 68.0 °F 56.8 °F 67% 30.11 in 10.0 mi SE 3.5 mph - N/A   Clear
12:15 PM 69.4 °F 56.7 °F 64% 30.11 in 10.0 mi East 4.6 mph - N/A   Clear
12:35 PM 70.2 °F 57.4 °F 64% 30.11 in 10.0 mi ENE 4.6 mph - N/A   Clear
12:55 PM 70.7 °F 57.6 °F 63% 30.10 in 10.0 mi Calm Calm - N/A   Clear
1:15 PM 71.2 °F 57.6 °F 62% 30.09 in 10.0 mi Calm Calm - N/A   Clear
1:35 PM 71.8 °F 57.7 °F 61% 30.09 in 10.0 mi Calm Calm - N/A   Clear
1:55 PM 72.7 °F 54.7 °F 53% 30.08 in 10.0 mi East 4.6 mph - N/A   Clear
2:15 PM 73.6 °F 52.9 °F 48% 30.07 in 10.0 mi Calm Calm - N/A   Clear
2:35 PM 74.3 °F 51.6 °F 45% 30.05 in 10.0 mi NNE 5.8 mph - N/A   Clear
2:55 PM 74.7 °F 49.3 °F 41% 30.05 in 10.0 mi NNE 3.5 mph - N/A   Clear
3:15 PM 75.4 °F 46.8 °F 36% 30.04 in 10.0 mi Calm Calm - N/A   Clear
3:35 PM 75.7 °F 46.6 °F 35% 30.03 in 10.0 mi Calm Calm - N/A   Clear
3:55 PM 76.3 °F 47.3 °F 36% 30.03 in 10.0 mi Calm Calm - N/A   Clear
4:15 PM 76.3 °F 46.4 °F 35% 30.03 in 10.0 mi Calm Calm - N/A   Clear
4:35 PM 76.6 °F 47.7 °F 36% 30.02 in 10.0 mi SSE 3.5 mph - N/A   Clear
4:55 PM 76.5 °F 46.6 °F 35% 30.01 in 10.0 mi SE 3.5 mph - N/A   Clear
5:15 PM 76.5 °F 47.8 °F 36% 30.01 in 10.0 mi Calm Calm - N/A   Clear
5:35 PM 76.3 °F 48.7 °F 38% 30.00 in 10.0 mi SE 5.8 mph - N/A   Clear
5:55 PM 75.9 °F 47.8 °F 37% 30.00 in 10.0 mi ENE 3.5 mph - N/A   Clear
6:15 PM 75.7 °F 47.7 °F 37% 30.00 in 10.0 mi South 3.5 mph - N/A   Clear
6:35 PM 74.7 °F 50.0 °F 42% 30.00 in 10.0 mi SE 4.6 mph - N/A   Clear
6:55 PM 73.6 °F 50.2 °F 44% 30.00 in 10.0 mi Calm Calm - N/A   Clear
7:15 PM 72.5 °F 48.6 °F 43% 30.00 in 10.0 mi Calm Calm - N/A   Clear
7:35 PM 67.1 °F 54.0 °F 63% 30.00 in 10.0 mi Calm Calm - N/A   Clear
7:55 PM 63.0 °F 55.0 °F 75% 30.00 in 10.0 mi Calm Calm - N/A   Clear
8:15 PM 60.4 °F 57.2 °F 89% 30.01 in 7.0 mi Calm Calm - N/A   Clear
8:35 PM 59.2 °F 56.1 °F 90% 30.01 in 10.0 mi Calm Calm - N/A   Clear
8:55 PM 58.1 °F 53.6 °F 85% 30.02 in 10.0 mi Calm Calm - N/A   Clear
9:15 PM 57.7 °F 54.0 °F 87% 30.03 in 10.0 mi Calm Calm - N/A   Clear
9:35 PM 57.0 °F 54.5 °F 91% 30.03 in 10.0 mi Calm Calm - N/A   Clear
9:55 PM 56.8 °F 54.5 °F 92% 30.04 in 10.0 mi Calm Calm - N/A   Clear
10:15 PM 56.7 °F 53.6 °F 89% 30.04 in 10.0 mi Calm Calm - N/A   Clear
10:35 PM 55.6 °F 54.1 °F 95% 30.06 in 10.0 mi Calm Calm - N/A   Clear
10:55 PM 54.9 °F 53.6 °F 96% 30.06 in 10.0 mi Calm Calm - N/A   Clear
11:15 PM 55.6 °F 52.3 °F 89% 30.07 in 10.0 mi Calm Calm - N/A   Clear
11:35 PM 55.4 °F 51.8 °F 88% 30.06 in 10.0 mi Calm Calm - N/A   Clear
11:55 PM 57.2 °F 50.4 °F 78% 30.06 in 10.0 mi East 3.5 mph - N/A   Clear